Time;durP1;ratioP1;P1;durP2;ratioP2;P2;SDS_P1;SDS_P2;PMS_P1;PMS_P2;Temp;Humidity;BMP_temperature;BMP_pressure;BME280_temperature;BME280_humidity;BME280_pressure;Samples;Min_cycle;Max_cycle;Signal;HPM_P1;HPM_P2
2023/12/18 00:00:32;;;;;;;14.00;13.50;;;;;;;;;;5051806;28;20197;-82
2023/12/18 00:02:59;;;;;;;11.90;11.45;;;;;;;;;;5051541;28;20045;-82
2023/12/18 00:05:25;;;;;;;11.60;11.00;;;;;;;;;;5050617;28;20158;-82
2023/12/18 00:07:52;;;;;;;13.65;13.13;;;;;;;;;;5051571;28;20048;-82
2023/12/18 00:10:20;;;;;;;9.27;8.82;;;;;;;;;;5051752;28;20497;-82
2023/12/18 00:12:46;;;;;;;15.57;14.88;;;;;;;;;;5051339;28;20551;-81
2023/12/18 00:15:13;;;;;;;11.70;11.20;;;;;;;;;;5051518;28;20049;-82
2023/12/18 00:17:39;;;;;;;12.45;11.93;;;;;;;;;;5051154;28;20045;-82
2023/12/18 00:20:06;;;;;;;8.35;8.05;;;;;;;;;;5051439;28;20053;-85
2023/12/18 00:22:33;;;;;;;17.23;16.58;;;;;;;;;;5050560;28;20464;-83
2023/12/18 00:24:59;;;;;;;14.20;13.25;;;;;;;;;;5052012;28;20110;-83
2023/12/18 00:27:27;;;;;;;13.40;12.70;;;;;;;;;;5051903;28;20052;-84
2023/12/18 00:29:54;;;;;;;16.77;15.82;;;;;;;;;;5051739;28;20122;-84
2023/12/18 00:32:20;;;;;;;12.20;11.60;;;;;;;;;;5052000;28;20103;-81
2023/12/18 00:34:47;;;;;;;10.55;10.13;;;;;;;;;;5051735;28;20497;-82
2023/12/18 00:37:13;;;;;;;11.68;11.18;;;;;;;;;;5051517;28;20091;-82
2023/12/18 00:39:40;;;;;;;12.98;12.18;;;;;;;;;;5050305;28;20053;-82
2023/12/18 00:42:06;;;;;;;10.98;10.40;;;;;;;;;;5051566;28;20103;-81
2023/12/18 00:44:34;;;;;;;11.45;10.95;;;;;;;;;;5051805;28;20098;-82
2023/12/18 00:47:02;;;;;;;7.25;6.95;;;;;;;;;;5051449;28;20056;-81
2023/12/18 00:49:31;;;;;;;7.53;7.15;;;;;;;;;;5051882;28;20130;-81
2023/12/18 00:51:58;;;;;;;12.57;11.98;;;;;;;;;;5051629;28;20102;-81
2023/12/18 00:54:24;;;;;;;14.15;13.45;;;;;;;;;;5051401;28;20541;-81
2023/12/18 00:56:51;;;;;;;13.20;12.70;;;;;;;;;;5049951;28;20049;-79
2023/12/18 00:59:17;;;;;;;15.32;14.70;;;;;;;;;;5051444;28;20480;-79
2023/12/18 01:01:45;;;;;;;15.25;14.55;;;;;;;;;;5051373;28;20068;-79
2023/12/18 01:04:12;;;;;;;14.27;13.57;;;;;;;;;;5051366;28;20044;-81
2023/12/18 01:06:38;;;;;;;12.25;11.45;;;;;;;;;;5051336;28;20068;-82
2023/12/18 01:09:05;;;;;;;19.85;18.27;;;;;;;;;;5051324;28;20111;-81
2023/12/18 01:11:31;;;;;;;11.43;10.90;;;;;;;;;;5050699;28;20160;-83
2023/12/18 01:13:58;;;;;;;21.73;20.63;;;;;;;;;;5044419;28;20095;-82
2023/12/18 01:16:24;;;;;;;15.68;15.00;;;;;;;;;;5034986;28;20391;-82
2023/12/18 01:18:52;;;;;;;13.15;12.65;;;;;;;;;;5035078;28;20057;-82
2023/12/18 01:21:19;;;;;;;10.20;9.70;;;;;;;;;;5035634;28;20049;-83
2023/12/18 01:23:45;;;;;;;13.13;12.48;;;;;;;;;;5037835;28;20045;-82
2023/12/18 01:26:11;;;;;;;11.35;10.75;;;;;;;;;;5043500;28;20398;-83
2023/12/18 01:28:40;;;;;;;15.90;15.15;;;;;;;;;;5046757;28;20099;-83
2023/12/18 01:31:07;;;;;;;13.02;12.52;;;;;;;;;;5043861;28;20125;-82
2023/12/18 01:33:34;;;;;;;16.73;15.88;;;;;;;;;;5044710;28;20140;-81
2023/12/18 01:36:02;;;;;;;12.98;12.48;;;;;;;;;;5045011;28;20098;-81
2023/12/18 01:38:28;;;;;;;12.05;11.55;;;;;;;;;;5051985;28;20413;-81
2023/12/18 01:40:55;;;;;;;10.98;10.45;;;;;;;;;;5051116;28;20045;-82
2023/12/18 01:43:25;;;;;;;16.38;15.30;;;;;;;;;;5054342;28;20445;-79
2023/12/18 01:45:55;;;;;;;17.27;16.42;;;;;;;;;;5054864;28;20052;-80
2023/12/18 01:48:22;;;;;;;12.15;11.23;;;;;;;;;;5044524;28;20048;-83
2023/12/18 01:50:48;;;;;;;16.85;15.95;;;;;;;;;;5048547;28;20048;-83
2023/12/18 01:53:16;;;;;;;17.73;17.02;;;;;;;;;;5054194;28;20536;-84
2023/12/18 01:55:43;;;;;;;13.45;12.85;;;;;;;;;;5053918;28;20045;-84
2023/12/18 01:58:10;;;;;;;14.05;13.52;;;;;;;;;;5054143;28;20071;-83
2023/12/18 02:00:37;;;;;;;16.05;15.45;;;;;;;;;;5054356;28;20052;-84
2023/12/18 02:03:04;;;;;;;21.25;20.25;;;;;;;;;;5053961;28;20072;-83
2023/12/18 02:05:30;;;;;;;17.08;15.88;;;;;;;;;;5050978;28;20483;-83
2023/12/18 02:07:58;;;;;;;19.40;18.50;;;;;;;;;;5042690;28;20049;-83
2023/12/18 02:10:26;;;;;;;19.90;18.85;;;;;;;;;;5054488;28;20048;-83
2023/12/18 02:12:52;;;;;;;18.83;18.00;;;;;;;;;;5054467;28;20517;-83
2023/12/18 02:15:19;;;;;;;18.25;17.45;;;;;;;;;;5054496;28;20126;-83
2023/12/18 02:17:45;;;;;;;21.50;20.60;;;;;;;;;;5054147;28;20171;-83
2023/12/18 02:20:12;;;;;;;21.30;20.20;;;;;;;;;;5053111;28;20044;-83
2023/12/18 02:22:50;;;;;;;23.08;21.95;;;;;;;;;;5054267;28;20794;-83
2023/12/18 02:25:16;;;;;;;;;;;;;;;;;;5054679;28;20110;-81
2023/12/18 02:27:44;;;;;;;12.45;11.55;;;;;;;;;;5053880;28;19921;-79
2023/12/18 02:30:14;;;;;;;15.05;14.43;;;;;;;;;;5054169;28;20048;-80
2023/12/18 02:32:41;;;;;;;14.63;13.70;;;;;;;;;;5053765;28;20098;-79
2023/12/18 02:35:08;;;;;;;22.33;21.05;;;;;;;;;;5051194;28;20051;-78
2023/12/18 02:37:34;;;;;;;13.05;12.55;;;;;;;;;;5049205;28;20067;-80
2023/12/18 02:40:02;;;;;;;16.85;16.05;;;;;;;;;;5053727;28;20053;-79
2023/12/18 02:42:29;;;;;;;19.67;18.75;;;;;;;;;;5052837;28;20433;-79
2023/12/18 02:44:57;;;;;;;15.57;14.77;;;;;;;;;;5053606;28;20048;-79
2023/12/18 02:47:24;;;;;;;15.52;14.82;;;;;;;;;;5053594;28;20075;-79
2023/12/18 02:49:50;;;;;;;14.77;13.80;;;;;;;;;;5053394;28;20064;-78
2023/12/18 02:52:17;;;;;;;17.17;16.48;;;;;;;;;;5053655;28;20048;-78
2023/12/18 02:54:43;;;;;;;21.98;20.95;;;;;;;;;;5052102;28;20371;-78
2023/12/18 02:57:11;;;;;;;21.58;20.65;;;;;;;;;;5038897;28;20135;-78
2023/12/18 02:59:38;;;;;;;19.73;18.98;;;;;;;;;;5033133;28;20441;-78
2023/12/18 03:02:04;;;;;;;16.15;15.55;;;;;;;;;;5033457;28;20046;-78
2023/12/18 03:04:31;;;;;;;18.33;17.42;;;;;;;;;;5032862;28;20486;-79
2023/12/18 03:06:57;;;;;;;18.27;17.38;;;;;;;;;;5033109;28;20057;-78
2023/12/18 03:09:24;;;;;;;24.80;23.77;;;;;;;;;;5033474;28;20057;-78
2023/12/18 03:11:50;;;;;;;18.50;17.52;;;;;;;;;;5032978;28;20506;-79
2023/12/18 03:14:18;;;;;;;15.85;14.77;;;;;;;;;;5043853;28;20041;-79
2023/12/18 03:16:44;;;;;;;20.67;19.48;;;;;;;;;;5050061;28;20107;-82
2023/12/18 03:19:11;;;;;;;24.90;23.60;;;;;;;;;;5052793;28;20099;-82
2023/12/18 03:21:37;;;;;;;20.23;19.13;;;;;;;;;;5052863;28;20053;-82
2023/12/18 03:24:04;;;;;;;25.58;24.42;;;;;;;;;;5052768;28;20049;-80
2023/12/18 03:26:30;;;;;;;17.40;16.15;;;;;;;;;;5052765;28;20057;-80
2023/12/18 03:28:57;;;;;;;25.45;24.42;;;;;;;;;;5052751;28;20048;-81
2023/12/18 03:31:25;;;;;;;18.90;17.77;;;;;;;;;;5048232;28;20040;-80
2023/12/18 03:33:51;;;;;;;27.88;26.25;;;;;;;;;;5047248;28;20053;-80
2023/12/18 03:36:18;;;;;;;23.40;21.88;;;;;;;;;;5052415;28;20045;-80
2023/12/18 03:38:44;;;;;;;24.40;23.33;;;;;;;;;;5052469;28;20575;-79
2023/12/18 03:41:11;;;;;;;25.88;24.48;;;;;;;;;;5052607;28;20056;-79
2023/12/18 03:43:37;;;;;;;17.55;16.92;;;;;;;;;;5052634;28;20095;-80
2023/12/18 03:46:04;;;;;;;15.98;15.27;;;;;;;;;;5052390;28;20107;-80
2023/12/18 03:48:32;;;;;;;22.80;21.80;;;;;;;;;;5052555;28;20489;-80
2023/12/18 03:50:58;;;;;;;19.77;18.67;;;;;;;;;;5051345;28;20499;-80
2023/12/18 03:53:25;;;;;;;29.58;28.13;;;;;;;;;;5046440;28;20103;-79
2023/12/18 03:55:51;;;;;;;19.67;18.88;;;;;;;;;;5051988;28;20551;-80
2023/12/18 03:58:18;;;;;;;15.60;15.00;;;;;;;;;;5052125;28;20049;-81
2023/12/18 04:00:44;;;;;;;18.88;17.77;;;;;;;;;;5052221;28;20056;-81
2023/12/18 04:03:10;;;;;;;20.92;19.80;;;;;;;;;;5050656;28;20152;-81
2023/12/18 04:05:38;;;;;;;30.08;27.25;;;;;;;;;;5052194;28;20049;-81
2023/12/18 04:08:05;;;;;;;21.40;20.27;;;;;;;;;;5051883;28;20106;-82
2023/12/18 04:10:32;;;;;;;21.98;20.95;;;;;;;;;;5052031;28;20559;-79
2023/12/18 04:12:58;;;;;;;25.00;24.08;;;;;;;;;;5051739;28;20111;-78
2023/12/18 04:15:26;;;;;;;22.90;22.00;;;;;;;;;;5052011;28;20110;-78
2023/12/18 04:17:52;;;;;;;19.17;18.33;;;;;;;;;;5051681;28;20136;-78
2023/12/18 04:20:19;;;;;;;24.20;23.25;;;;;;;;;;5051714;28;20040;-78
2023/12/18 04:22:47;;;;;;;23.60;22.58;;;;;;;;;;5050642;28;20049;-78
2023/12/18 04:25:13;;;;;;;21.92;21.02;;;;;;;;;;5052059;28;20053;-78
2023/12/18 04:27:40;;;;;;;27.58;26.58;;;;;;;;;;5051792;28;20100;-78
2023/12/18 04:30:07;;;;;;;23.92;23.02;;;;;;;;;;5051865;28;20048;-78
2023/12/18 04:32:33;;;;;;;17.10;16.40;;;;;;;;;;5051761;28;20106;-78
2023/12/18 04:35:00;;;;;;;22.85;21.80;;;;;;;;;;5051666;28;20110;-79
2023/12/18 04:37:26;;;;;;;20.83;20.10;;;;;;;;;;5051789;28;20049;-78
2023/12/18 04:39:54;;;;;;;23.60;22.50;;;;;;;;;;5050611;28;20551;-78
2023/12/18 04:42:21;;;;;;;19.45;18.58;;;;;;;;;;5051587;28;20052;-78
2023/12/18 04:44:47;;;;;;;19.55;18.73;;;;;;;;;;5051954;28;20049;-78
2023/12/18 04:47:14;;;;;;;19.05;18.23;;;;;;;;;;5055249;28;20053;-78
2023/12/18 04:49:40;;;;;;;18.08;17.30;;;;;;;;;;5055628;28;20053;-78
2023/12/18 04:52:07;;;;;;;23.10;22.08;;;;;;;;;;5055529;28;20099;-78
2023/12/18 04:54:33;;;;;;;20.67;19.75;;;;;;;;;;5055880;28;20464;-78
2023/12/18 04:57:01;;;;;;;18.42;17.42;;;;;;;;;;5053925;28;20052;-78
2023/12/18 04:59:27;;;;;;;20.50;19.42;;;;;;;;;;5055704;28;20048;-78
2023/12/18 05:01:54;;;;;;;21.65;20.65;;;;;;;;;;5055352;28;20049;-82
2023/12/18 05:04:20;;;;;;;17.65;16.83;;;;;;;;;;5053987;28;20041;-82
2023/12/18 05:06:47;;;;;;;19.92;18.98;;;;;;;;;;5055422;28;20091;-81
2023/12/18 05:09:14;;;;;;;15.25;14.20;;;;;;;;;;5055227;28;20576;-82
2023/12/18 05:11:41;;;;;;;15.85;15.07;;;;;;;;;;5053689;28;20049;-82
2023/12/18 05:14:09;;;;;;;21.38;20.33;;;;;;;;;;5055090;28;20063;-82
2023/12/18 05:16:35;;;;;;;19.77;18.98;;;;;;;;;;5055237;28;20060;-80
2023/12/18 05:19:02;;;;;;;22.48;21.10;;;;;;;;;;5055052;28;20541;-80
2023/12/18 05:21:29;;;;;;;23.30;21.83;;;;;;;;;;5055181;28;20056;-81
2023/12/18 05:23:55;;;;;;;24.40;23.17;;;;;;;;;;5055082;28;20139;-81
2023/12/18 05:26:22;;;;;;;18.90;17.90;;;;;;;;;;5054860;28;20453;-81
2023/12/18 05:28:49;;;;;;;19.75;18.50;;;;;;;;;;5053560;28;20140;-81
2023/12/18 05:31:18;;;;;;;17.48;15.95;;;;;;;;;;5054931;28;20126;-81
2023/12/18 05:33:45;;;;;;;19.45;18.40;;;;;;;;;;5054512;28;20548;-81
2023/12/18 05:36:11;;;;;;;20.85;19.45;;;;;;;;;;5054822;28;20052;-81
2023/12/18 05:38:38;;;;;;;21.00;19.08;;;;;;;;;;5054784;28;20048;-80
2023/12/18 05:41:04;;;;;;;26.40;25.05;;;;;;;;;;5054673;28;20563;-81
2023/12/18 05:43:31;;;;;;;22.42;20.63;;;;;;;;;;5054644;28;20494;-81
2023/12/18 05:45:57;;;;;;;29.75;28.38;;;;;;;;;;5054601;28;20094;-81
2023/12/18 05:48:25;;;;;;;28.90;26.67;;;;;;;;;;5053227;28;20049;-81
2023/12/18 05:50:51;;;;;;;21.60;20.40;;;;;;;;;;5054420;28;20041;-81
2023/12/18 05:53:18;;;;;;;25.33;23.90;;;;;;;;;;5054394;28;20098;-80
2023/12/18 05:55:44;;;;;;;28.58;26.90;;;;;;;;;;5054312;28;20191;-81
2023/12/18 05:58:11;;;;;;;21.40;20.30;;;;;;;;;;5053620;28;20445;-81
2023/12/18 06:00:38;;;;;;;17.55;16.40;;;;;;;;;;5054497;28;20092;-80
2023/12/18 06:03:04;;;;;;;30.77;28.58;;;;;;;;;;5052973;28;20049;-80
2023/12/18 06:05:32;;;;;;;21.38;20.42;;;;;;;;;;5052901;28;20041;-81
2023/12/18 06:07:59;;;;;;;23.88;21.52;;;;;;;;;;5054188;28;20052;-81
2023/12/18 06:10:25;;;;;;;17.13;15.93;;;;;;;;;;5054235;28;20111;-80
2023/12/18 06:12:52;;;;;;;28.95;26.95;;;;;;;;;;5054232;28;20053;-82
2023/12/18 06:15:18;;;;;;;25.60;24.10;;;;;;;;;;5054285;28;20049;-81
2023/12/18 06:17:45;;;;;;;19.73;18.83;;;;;;;;;;5054735;28;20106;-79
2023/12/18 06:20:11;;;;;;;24.60;23.13;;;;;;;;;;5054284;28;20122;-79
2023/12/18 06:22:39;;;;;;;28.15;27.00;;;;;;;;;;5052430;28;20559;-79
2023/12/18 06:25:06;;;;;;;28.05;26.67;;;;;;;;;;5053752;28;20517;-79
2023/12/18 06:27:33;;;;;;;20.42;19.48;;;;;;;;;;5053885;28;20098;-81
2023/12/18 06:29:59;;;;;;;21.45;20.33;;;;;;;;;;5053318;28;20045;-80
2023/12/18 06:32:25;;;;;;;31.65;30.42;;;;;;;;;;5052996;28;20094;-80
2023/12/18 06:34:52;;;;;;;16.63;15.07;;;;;;;;;;5053758;28;20449;-79
2023/12/18 06:37:18;;;;;;;27.33;25.88;;;;;;;;;;5052370;28;20111;-79
2023/12/18 06:39:48;;;;;;;22.20;21.08;;;;;;;;;;5053704;28;20053;-79
2023/12/18 06:42:14;;;;;;;20.23;19.08;;;;;;;;;;5053531;28;20084;-79
2023/12/18 06:44:41;;;;;;;23.35;21.77;;;;;;;;;;5053820;28;20057;-78
2023/12/18 06:47:07;;;;;;;18.52;17.63;;;;;;;;;;5053770;28;20049;-79
2023/12/18 06:49:34;;;;;;;22.75;21.65;;;;;;;;;;5053585;28;20049;-79
2023/12/18 06:52:00;;;;;;;36.28;34.30;;;;;;;;;;5052075;28;20044;-80
2023/12/18 06:54:27;;;;;;;19.73;18.52;;;;;;;;;;5053552;28;20049;-81
2023/12/18 06:56:55;;;;;;;28.13;26.90;;;;;;;;;;5052699;28;20131;-81
2023/12/18 06:59:22;;;;;;;23.33;22.23;;;;;;;;;;5053392;28;20498;-81
2023/12/18 07:01:48;;;;;;;25.67;24.15;;;;;;;;;;5053638;28;20049;-81
2023/12/18 07:04:15;;;;;;;31.80;29.20;;;;;;;;;;5053639;28;20060;-81
2023/12/18 07:06:41;;;;;;;22.58;21.25;;;;;;;;;;5047851;28;20052;-79
2023/12/18 07:09:07;;;;;;;29.55;28.38;;;;;;;;;;5048174;28;20045;-80
2023/12/18 07:11:34;;;;;;;21.73;20.67;;;;;;;;;;5053162;28;20053;-81
2023/12/18 07:14:02;;;;;;;28.00;26.70;;;;;;;;;;5052479;28;20045;-81
2023/12/18 07:16:28;;;;;;;30.02;28.45;;;;;;;;;;5044142;28;20053;-82
2023/12/18 07:18:56;;;;;;;20.05;18.95;;;;;;;;;;5041989;28;20061;-80
2023/12/18 07:21:22;;;;;;;28.80;27.60;;;;;;;;;;5043730;28;20057;-78
2023/12/18 07:23:49;;;;;;;28.23;26.48;;;;;;;;;;5033410;28;20041;-81
2023/12/18 07:26:16;;;;;;;21.42;19.92;;;;;;;;;;5041881;28;20049;-81
2023/12/18 07:28:41;;;;;;;20.15;19.10;;;;;;;;;;5040878;28;20049;-79
2023/12/18 07:31:09;;;;;;;22.35;20.92;;;;;;;;;;5042853;28;20397;-80
2023/12/18 07:33:36;;;;;;;14.77;14.20;;;;;;;;;;5042448;28;20119;-80
2023/12/18 07:36:03;;;;;;;22.50;21.67;;;;;;;;;;5040319;28;20106;-80
2023/12/18 07:38:29;;;;;;;19.58;18.27;;;;;;;;;;5041986;28;20045;-79
2023/12/18 07:40:56;;;;;;;25.52;24.60;;;;;;;;;;5038976;28;20041;-80
2023/12/18 07:43:22;;;;;;;19.00;18.13;;;;;;;;;;5042407;28;20091;-80
2023/12/18 07:45:49;;;;;;;17.05;16.13;;;;;;;;;;5041544;28;20422;-80
2023/12/18 07:48:18;;;;;;;26.48;25.17;;;;;;;;;;5048861;28;20048;-80
2023/12/18 07:50:45;;;;;;;24.75;23.42;;;;;;;;;;5051573;28;20057;-78
2023/12/18 07:53:11;;;;;;;17.25;16.55;;;;;;;;;;5037965;28;20042;-78
2023/12/18 07:55:39;;;;;;;18.85;17.67;;;;;;;;;;5035769;28;20119;-77
2023/12/18 07:58:05;;;;;;;26.08;25.05;;;;;;;;;;5051914;28;20107;-78
2023/12/18 08:00:31;;;;;;;21.48;20.45;;;;;;;;;;5039745;28;20099;-78
2023/12/18 08:02:58;;;;;;;21.63;20.42;;;;;;;;;;5051717;28;20547;-78
2023/12/18 08:05:26;;;;;;;18.02;17.15;;;;;;;;;;5051618;28;20106;-78
2023/12/18 08:07:53;;;;;;;19.65;18.48;;;;;;;;;;5048004;28;20045;-78
2023/12/18 08:10:19;;;;;;;19.13;17.85;;;;;;;;;;5041683;28;20090;-78
2023/12/18 08:12:46;;;;;;;15.10;14.40;;;;;;;;;;5042858;28;20045;-79
2023/12/18 08:15:12;;;;;;;22.65;21.63;;;;;;;;;;5038046;28;20042;-78
2023/12/18 08:17:39;;;;;;;19.40;18.40;;;;;;;;;;5037597;28;20042;-78
2023/12/18 08:20:07;;;;;;;25.25;24.25;;;;;;;;;;5050962;28;20532;-79
2023/12/18 08:22:35;;;;;;;23.25;21.80;;;;;;;;;;5040870;28;20048;-79
2023/12/18 08:25:02;;;;;;;19.50;18.60;;;;;;;;;;5051525;28;20147;-79
2023/12/18 08:27:32;;;;;;;21.25;20.20;;;;;;;;;;5047175;28;20085;-80
2023/12/18 08:29:58;;;;;;;24.17;21.83;;;;;;;;;;5051103;28;20076;-79
2023/12/18 08:32:25;;;;;;;25.10;23.90;;;;;;;;;;5050894;28;20060;-79
2023/12/18 08:34:51;;;;;;;29.33;27.98;;;;;;;;;;5038527;28;20045;-79
2023/12/18 08:37:18;;;;;;;25.95;24.65;;;;;;;;;;5046541;28;20041;-79
2023/12/18 08:39:46;;;;;;;25.02;23.67;;;;;;;;;;5036385;28;20053;-79
2023/12/18 08:42:13;;;;;;;29.58;28.00;;;;;;;;;;5045266;28;20525;-78
2023/12/18 08:44:40;;;;;;;30.02;28.55;;;;;;;;;;5048523;28;20088;-78
2023/12/18 08:47:07;;;;;;;20.08;19.27;;;;;;;;;;5051527;28;20064;-78
2023/12/18 08:49:33;;;;;;;28.00;26.88;;;;;;;;;;5051561;28;20076;-79
2023/12/18 08:52:00;;;;;;;16.80;16.02;;;;;;;;;;5049633;28;20110;-79
2023/12/18 08:54:26;;;;;;;22.88;21.52;;;;;;;;;;5044572;28;20052;-79
2023/12/18 08:56:54;;;;;;;19.42;17.73;;;;;;;;;;5048839;28;20053;-78
2023/12/18 08:59:20;;;;;;;22.20;21.13;;;;;;;;;;5050365;28;20087;-79
2023/12/18 09:01:47;;;;;;;21.10;19.90;;;;;;;;;;5050358;28;20559;-80
2023/12/18 09:04:13;;;;;;;23.77;22.35;;;;;;;;;;5050187;28;20087;-80
2023/12/18 09:06:40;;;;;;;28.60;27.25;;;;;;;;;;5049487;28;20106;-79
2023/12/18 09:09:07;;;;;;;20.58;19.67;;;;;;;;;;5050002;28;20045;-79
2023/12/18 09:11:35;;;;;;;32.88;30.48;;;;;;;;;;5050810;28;20444;-79
2023/12/18 09:14:04;;;;;;;20.58;19.60;;;;;;;;;;5051050;28;20055;-78
2023/12/18 09:16:30;;;;;;;31.30;28.63;;;;;;;;;;5050706;28;20052;-79
2023/12/18 09:18:57;;;;;;;27.40;26.00;;;;;;;;;;5050800;28;20048;-79
2023/12/18 09:21:23;;;;;;;27.42;25.58;;;;;;;;;;5050795;28;20107;-79
2023/12/18 09:23:50;;;;;;;27.63;26.02;;;;;;;;;;5050766;28;20052;-78
2023/12/18 09:26:17;;;;;;;26.83;25.17;;;;;;;;;;5050972;28;20045;-78
2023/12/18 09:28:43;;;;;;;25.65;24.33;;;;;;;;;;5050689;28;20049;-79
2023/12/18 09:31:11;;;;;;;20.67;18.67;;;;;;;;;;5051113;28;20540;-79
2023/12/18 09:33:37;;;;;;;26.40;25.13;;;;;;;;;;5049272;28;20568;-79
2023/12/18 09:36:07;;;;;;;23.20;21.67;;;;;;;;;;5052674;28;20110;-80
2023/12/18 09:38:34;;;;;;;18.40;17.08;;;;;;;;;;5053808;28;20053;-79
2023/12/18 09:41:00;;;;;;;20.73;19.10;;;;;;;;;;5053915;28;20052;-79
2023/12/18 09:43:28;;;;;;;27.45;25.92;;;;;;;;;;5054128;28;20045;-79
2023/12/18 09:45:55;;;;;;;21.70;20.48;;;;;;;;;;5054362;28;20049;-77
2023/12/18 09:48:24;;;;;;;22.13;20.55;;;;;;;;;;5046706;28;20102;-79
2023/12/18 09:50:51;;;;;;;19.38;18.58;;;;;;;;;;5053826;28;20136;-79
2023/12/18 09:53:20;;;;;;;22.63;21.52;;;;;;;;;;5037966;28;20399;-79
2023/12/18 09:55:48;;;;;;;23.10;22.15;;;;;;;;;;5054251;28;20041;-80
2023/12/18 09:58:17;;;;;;;24.33;21.88;;;;;;;;;;5053889;28;20132;-79
2023/12/18 10:00:44;;;;;;;25.95;24.60;;;;;;;;;;5053612;28;20535;-79
2023/12/18 10:03:13;;;;;;;25.02;23.55;;;;;;;;;;5053609;28;20107;-79
2023/12/18 10:05:42;;;;;;;24.27;22.75;;;;;;;;;;5053854;28;20057;-79
2023/12/18 10:08:09;;;;;;;23.48;21.75;;;;;;;;;;5054047;28;20048;-80
2023/12/18 10:10:36;;;;;;;19.15;18.25;;;;;;;;;;5053844;28;20622;-80
2023/12/18 10:13:05;;;;;;;24.65;23.52;;;;;;;;;;5053781;28;20099;-79
2023/12/18 10:15:33;;;;;;;33.08;31.17;;;;;;;;;;5053626;28;20045;-80
2023/12/18 10:18:02;;;;;;;35.67;33.90;;;;;;;;;;5053247;28;20059;-80
2023/12/18 10:20:29;;;;;;;22.30;21.25;;;;;;;;;;5054343;28;20051;-80
2023/12/18 10:22:57;;;;;;;33.53;31.75;;;;;;;;;;5054213;28;20443;-79
2023/12/18 10:25:23;;;;;;;27.80;26.42;;;;;;;;;;5053814;28;20041;-81
2023/12/18 10:27:50;;;;;;;25.02;23.73;;;;;;;;;;5053665;28;20061;-80
2023/12/18 10:30:16;;;;;;;27.30;25.88;;;;;;;;;;5052988;28;20482;-81
2023/12/18 10:32:43;;;;;;;30.05;28.40;;;;;;;;;;5053210;28;20045;-80
2023/12/18 10:35:10;;;;;;;23.45;22.55;;;;;;;;;;5053040;28;20063;-81
2023/12/18 10:37:38;;;;;;;23.92;22.60;;;;;;;;;;5053203;28;20049;-80
2023/12/18 10:40:09;;;;;;;23.65;22.30;;;;;;;;;;5053309;28;20414;-81
2023/12/18 10:42:36;;;;;;;32.72;31.30;;;;;;;;;;5053313;28;20052;-81
2023/12/18 10:45:03;;;;;;;29.00;27.38;;;;;;;;;;5052665;28;20144;-82
2023/12/18 10:47:31;;;;;;;25.25;24.02;;;;;;;;;;5053392;28;20049;-81
2023/12/18 10:49:58;;;;;;;25.17;24.17;;;;;;;;;;5053588;28;20106;-81
2023/12/18 10:52:25;;;;;;;30.17;28.33;;;;;;;;;;5044466;28;20050;-81
2023/12/18 10:54:52;;;;;;;27.52;26.10;;;;;;;;;;5053142;28;20122;-82
2023/12/18 10:57:21;;;;;;;29.55;27.90;;;;;;;;;;5053128;28;20102;-80
2023/12/18 10:59:49;;;;;;;29.00;27.50;;;;;;;;;;5053210;28;20106;-80
2023/12/18 11:02:16;;;;;;;30.98;29.25;;;;;;;;;;5053400;28;20403;-80
2023/12/18 11:04:43;;;;;;;25.60;24.20;;;;;;;;;;5052349;28;20053;-81
2023/12/18 11:07:10;;;;;;;31.35;30.13;;;;;;;;;;5052971;28;20107;-79
2023/12/18 11:09:37;;;;;;;34.13;32.55;;;;;;;;;;5052772;28;20049;-79
2023/12/18 11:12:05;;;;;;;31.48;28.83;;;;;;;;;;5049217;28;20056;-79
2023/12/18 11:14:37;;;;;;;26.50;25.25;;;;;;;;;;5050166;28;20481;-79
2023/12/18 11:17:08;;;;;;;22.27;21.17;;;;;;;;;;5052922;28;20049;-79
2023/12/18 11:19:38;;;;;;;37.25;35.60;;;;;;;;;;5053083;28;20041;-79
2023/12/18 11:22:06;;;;;;;28.92;27.45;;;;;;;;;;5052644;28;20468;-79
2023/12/18 11:24:36;;;;;;;21.73;20.45;;;;;;;;;;5052827;28;20051;-80
2023/12/18 11:27:03;;;;;;;31.55;30.02;;;;;;;;;;5052672;28;20045;-79
2023/12/18 11:29:34;;;;;;;27.70;25.90;;;;;;;;;;5049285;28;20498;-79
2023/12/18 11:32:01;;;;;;;35.53;33.13;;;;;;;;;;5052373;28;20068;-80
2023/12/18 11:34:27;;;;;;;26.25;24.95;;;;;;;;;;5052393;28;20673;-80
2023/12/18 11:36:54;;;;;;;31.55;29.70;;;;;;;;;;5051633;28;20052;-80
2023/12/18 11:39:21;;;;;;;26.23;24.63;;;;;;;;;;5048410;28;20044;-74
2023/12/18 11:41:48;;;;;;;34.80;33.13;;;;;;;;;;5051645;28;20045;-74
2023/12/18 11:44:15;;;;;;;26.33;25.10;;;;;;;;;;5047723;28;20056;-74
2023/12/18 11:46:44;;;;;;;31.27;29.50;;;;;;;;;;5048945;28;20094;-74
2023/12/18 11:49:12;;;;;;;34.53;32.92;;;;;;;;;;5035739;28;20133;-74
2023/12/18 11:51:41;;;;;;;27.80;26.30;;;;;;;;;;5052461;28;20049;-75
2023/12/18 11:54:07;;;;;;;34.30;31.92;;;;;;;;;;5047865;28;20545;-74
2023/12/18 11:56:38;;;;;;;32.53;30.15;;;;;;;;;;5052039;28;20102;-75
2023/12/18 11:59:06;;;;;;;37.08;35.40;;;;;;;;;;5048299;28;20059;-74
2023/12/18 12:01:32;;;;;;;41.35;38.92;;;;;;;;;;5052305;28;20076;-74
2023/12/18 12:04:00;;;;;;;31.98;29.60;;;;;;;;;;5051731;28;20045;-75
2023/12/18 12:06:27;;;;;;;28.80;27.25;;;;;;;;;;5051177;28;20049;-74
2023/12/18 12:08:53;;;;;;;27.27;26.13;;;;;;;;;;5051580;28;20052;-71
2023/12/18 12:11:20;;;;;;;31.33;29.65;;;;;;;;;;5048414;28;20110;-75
2023/12/18 12:13:48;;;;;;;24.90;23.83;;;;;;;;;;5051831;28;20127;-75
2023/12/18 12:16:17;;;;;;;37.08;35.05;;;;;;;;;;5052098;28;20077;-75
2023/12/18 12:18:46;;;;;;;29.92;27.90;;;;;;;;;;5046773;28;20509;-74
2023/12/18 12:21:15;;;;;;;33.40;31.20;;;;;;;;;;5043337;28;20478;-74
2023/12/18 12:23:41;;;;;;;25.92;24.60;;;;;;;;;;5031745;28;20590;-74
2023/12/18 12:26:09;;;;;;;23.55;22.55;;;;;;;;;;5031574;28;20561;-74
2023/12/18 12:28:35;;;;;;;24.95;23.40;;;;;;;;;;5034561;28;20397;-74
2023/12/18 12:31:03;;;;;;;29.33;28.10;;;;;;;;;;5038696;28;20575;-71
2023/12/18 12:33:39;;;;;;;27.77;26.42;;;;;;;;;;5034881;28;20060;-76
2023/12/18 12:36:06;;;;;;;27.70;25.55;;;;;;;;;;5051686;28;20114;-72
2023/12/18 12:38:37;;;;;;;28.20;26.30;;;;;;;;;;5051516;28;20044;-75
2023/12/18 12:41:04;;;;;;;32.63;30.75;;;;;;;;;;5052423;28;20439;-73
2023/12/18 12:43:31;;;;;;;33.83;31.83;;;;;;;;;;5054781;28;20602;-75
2023/12/18 12:45:57;;;;;;;28.52;26.80;;;;;;;;;;5051772;28;20127;-76
2023/12/18 12:48:24;;;;;;;39.55;37.80;;;;;;;;;;5051453;28;20049;-75
2023/12/18 12:50:51;;;;;;;28.58;27.05;;;;;;;;;;5050333;28;20071;-75
2023/12/18 12:53:18;;;;;;;35.78;34.13;;;;;;;;;;5051423;28;20041;-75
2023/12/18 12:55:46;;;;;;;24.52;23.48;;;;;;;;;;5051072;28;20095;-76
2023/12/18 12:58:13;;;;;;;35.65;30.48;;;;;;;;;;5031691;28;20057;-76
2023/12/18 13:00:39;;;;;;;33.22;31.17;;;;;;;;;;5046120;28;20491;-75
2023/12/18 13:03:06;;;;;;;34.75;33.03;;;;;;;;;;5049980;28;20114;-75
2023/12/18 13:05:33;;;;;;;26.83;24.92;;;;;;;;;;5055540;28;20040;-75
2023/12/18 13:08:00;;;;;;;27.25;26.23;;;;;;;;;;5053131;28;20045;-75
2023/12/18 13:10:28;;;;;;;26.30;24.73;;;;;;;;;;5055730;28;20041;-75
2023/12/18 13:12:56;;;;;;;28.17;26.42;;;;;;;;;;5053685;28;20048;-75
2023/12/18 13:15:23;;;;;;;30.33;28.33;;;;;;;;;;5037768;28;20136;-75
2023/12/18 13:17:49;;;;;;;31.38;29.33;;;;;;;;;;5035574;28;20107;-75
2023/12/18 13:20:17;;;;;;;36.38;34.63;;;;;;;;;;5039131;28;20049;-75
2023/12/18 13:22:44;;;;;;;34.53;32.42;;;;;;;;;;5037318;28;20049;-73
2023/12/18 13:25:10;;;;;;;33.00;31.42;;;;;;;;;;5042613;28;20053;-74
2023/12/18 13:27:37;;;;;;;33.90;31.77;;;;;;;;;;5047336;22;20054;-90
2023/12/18 13:30:08;;;;;;;25.42;24.05;;;;;;;;;;5016710;28;20052;-90
2023/12/18 13:32:35;;;;;;;30.08;28.58;;;;;;;;;;5016610;28;20050;-90
2023/12/18 13:35:02;;;;;;;42.33;39.90;;;;;;;;;;5016560;28;20049;-90
2023/12/18 13:37:29;;;;;;;30.15;28.48;;;;;;;;;;5016130;28;20105;-90
2023/12/18 13:39:56;;;;;;;31.67;29.85;;;;;;;;;;5016875;28;20104;-89
2023/12/18 13:42:22;;;;;;;39.28;36.45;;;;;;;;;;5011330;28;20046;-90
2023/12/18 13:44:49;;;;;;;31.17;29.33;;;;;;;;;;5016608;28;20058;-90
2023/12/18 13:47:17;;;;;;;33.30;31.25;;;;;;;;;;5016334;28;20133;-91
2023/12/18 13:49:44;;;;;;;38.30;36.35;;;;;;;;;;5017490;28;20049;-91
2023/12/18 13:52:10;;;;;;;31.13;28.65;;;;;;;;;;5016845;28;20097;-92
2023/12/18 13:54:37;;;;;;;29.23;27.15;;;;;;;;;;5017044;28;20050;-91
2023/12/18 13:57:04;;;;;;;34.85;32.35;;;;;;;;;;5016730;28;20108;-91
2023/12/18 13:59:30;;;;;;;41.03;38.33;;;;;;;;;;5019251;28;20056;-92
2023/12/18 14:01:57;;;;;;;42.13;38.90;;;;;;;;;;5019856;28;20053;-92
2023/12/18 14:04:25;;;;;;;43.53;40.80;;;;;;;;;;5018784;28;20105;-92
2023/12/18 14:06:51;;;;;;;33.88;31.58;;;;;;;;;;5015910;28;20415;-92
2023/12/18 14:09:18;;;;;;;40.08;37.95;;;;;;;;;;5019122;28;20049;-91
2023/12/18 14:11:44;;;;;;;36.53;34.38;;;;;;;;;;5027466;28;20057;-91
2023/12/18 14:14:11;;;;;;;40.53;38.47;;;;;;;;;;5019288;28;20065;-91
2023/12/18 14:16:38;;;;;;;36.03;34.03;;;;;;;;;;5030044;28;20058;-92